Barbara Foss — WYL4318 — position and weather

sailwx.info

Track history (hours):
 
Tides and Currents Weather Stations Pressure Air Temp Water Temp Dewpoint Dewpoint Depression Visibility Wind Speed Wind Dir Waves Ship Positions

Barbara Foss

Owner: Foss International, Inc, SEATTLE, WA. More information available from US FCC via Universal Licensing System and Coast Guard Vessel Documentation Center.

Last reported at 2016-May-08 13:33 UTC. Time now 2016-May-29 11:39 UTC.
Position N 47°39' W 122°22'.
Warning: this ship's position is 20 days out of date.

Length 40 m; draft 5 m.

Type: Towing. MMSI: 366932130.

Date/timePositionNaut miles runAvg speedWind from/ knotsBaromVisibWave heightAir tempDewpointWater temp
2016-May-08 13:33N 47°39' W 122°22'0 0.0
2016-May-08 12:33N 47°39' W 122°22'0 0.0
2016-May-08 11:33N 47°39' W 122°22'0 0.0
2016-May-08 10:33N 47°39' W 122°22'1 1.4
2016-May-08 09:33N 47°40' W 122°24'6 5.9
2016-May-08 08:33N 47°45' W 122°27'1010.2
2016-May-08 07:33N 47°55' W 122°31'7 0.5
2016-May-07 18:07N 47°57' W 122°40'0 0.1
2016-May-07 14:20N 47°57' W 122°40'0 0.0
2016-May-06 19:07N 47°57' W 122°40'1 0.1
2016-May-06 05:32N 47°58' W 122°39'1 0.5
2016-May-06 03:10N 47°57' W 122°40'0 0.0
2016-May-06 02:32N 47°57' W 122°40'0 0.0
2016-May-05 19:09N 47°57' W 122°40'0 0.0
2016-May-05 04:23N 47°57' W 122°40'0 0.0
2016-May-05 03:17N 47°57' W 122°40'0 0.3
2016-May-05 02:33N 47°57' W 122°40'2 2.2
2016-May-05 01:31N 47°58' W 122°37'9 9.5
2016-May-05 00:33N 47°52' W 122°28'1111.0
2016-May-04 23:33N 47°41' W 122°25'3 3.0
2016-May-04 22:33N 47°39' W 122°22'0 0.0
2016-May-04 21:33N 47°39' W 122°22'0 0.0
2016-May-04 20:33N 47°39' W 122°22'0 0.0
2016-May-04 19:33N 47°39' W 122°22'  
Track history (hours):
 
Tides and Currents Weather Stations Pressure Air Temp Water Temp Dewpoint Dewpoint Depression Visibility Wind Speed Wind Dir Waves Ship Positions

Barbara Foss

Owner: Foss International, Inc, SEATTLE, WA. More information available from US FCC via Universal Licensing System and Coast Guard Vessel Documentation Center.

Last reported at 2016-May-08 13:33 UTC. Time now 2016-May-29 11:39 UTC.
Position N 47°39' W 122°22'.
Warning: this ship's position is 20 days out of date.

Length 40 m; draft 5 m.

Type: Towing. MMSI: 366932130.

Date/timePositionNaut miles runAvg speedWind from/ knotsBaromVisibWave heightAir tempDewpointWater temp
2016-May-08 13:33N 47°39' W 122°22'0 0.0
2016-May-08 12:33N 47°39' W 122°22'0 0.0
2016-May-08 11:33N 47°39' W 122°22'0 0.0
2016-May-08 10:33N 47°39' W 122°22'1 1.4
2016-May-08 09:33N 47°40' W 122°24'6 5.9
2016-May-08 08:33N 47°45' W 122°27'1010.2
2016-May-08 07:33N 47°55' W 122°31'7 0.5
2016-May-07 18:07N 47°57' W 122°40'0 0.1
2016-May-07 14:20N 47°57' W 122°40'0 0.0
2016-May-06 19:07N 47°57' W 122°40'1 0.1
2016-May-06 05:32N 47°58' W 122°39'1 0.5
2016-May-06 03:10N 47°57' W 122°40'0 0.0
2016-May-06 02:32N 47°57' W 122°40'0 0.0
2016-May-05 19:09N 47°57' W 122°40'0 0.0
2016-May-05 04:23N 47°57' W 122°40'0 0.0
2016-May-05 03:17N 47°57' W 122°40'0 0.3
2016-May-05 02:33N 47°57' W 122°40'2 2.2
2016-May-05 01:31N 47°58' W 122°37'9 9.5
2016-May-05 00:33N 47°52' W 122°28'1111.0
2016-May-04 23:33N 47°41' W 122°25'3 3.0
2016-May-04 22:33N 47°39' W 122°22'0 0.0
2016-May-04 21:33N 47°39' W 122°22'0 0.0
2016-May-04 20:33N 47°39' W 122°22'0 0.0
2016-May-04 19:33N 47°39' W 122°22'  

Dump ship's entire track history